sensor_id;sensor_type;location;lat;lon;timestamp;P1;durP1;ratioP1;P2;durP2;ratioP2
51292;SDS011;37377;45.186;9.778;2023-08-20T00:01:32;35.92;;;31.88;;
51292;SDS011;37377;45.186;9.778;2023-08-20T00:03:59;40.63;;;33.28;;
51292;SDS011;37377;45.186;9.778;2023-08-20T00:06:27;46.25;;;33.95;;
51292;SDS011;37377;45.186;9.778;2023-08-20T00:08:55;40.00;;;32.78;;
51292;SDS011;37377;45.186;9.778;2023-08-20T00:11:21;41.35;;;32.55;;
51292;SDS011;37377;45.186;9.778;2023-08-20T00:13:48;49.88;;;34.30;;
51292;SDS011;37377;45.186;9.778;2023-08-20T00:16:17;45.13;;;33.80;;
51292;SDS011;37377;45.186;9.778;2023-08-20T00:18:44;42.17;;;33.85;;
51292;SDS011;37377;45.186;9.778;2023-08-20T00:21:11;37.15;;;33.42;;
51292;SDS011;37377;45.186;9.778;2023-08-20T00:23:38;42.80;;;35.10;;
51292;SDS011;37377;45.186;9.778;2023-08-20T00:26:05;45.22;;;34.58;;
51292;SDS011;37377;45.186;9.778;2023-08-20T00:28:32;46.90;;;34.63;;
51292;SDS011;37377;45.186;9.778;2023-08-20T00:31:04;45.58;;;34.47;;
51292;SDS011;37377;45.186;9.778;2023-08-20T00:33:31;39.30;;;35.08;;
51292;SDS011;37377;45.186;9.778;2023-08-20T00:35:58;45.67;;;35.13;;
51292;SDS011;37377;45.186;9.778;2023-08-20T00:38:25;39.67;;;34.33;;
51292;SDS011;37377;45.186;9.778;2023-08-20T00:40:53;41.05;;;34.20;;
51292;SDS011;37377;45.186;9.778;2023-08-20T00:43:20;46.65;;;35.58;;
51292;SDS011;37377;45.186;9.778;2023-08-20T00:45:48;37.33;;;33.38;;
51292;SDS011;37377;45.186;9.778;2023-08-20T00:48:16;46.83;;;35.35;;
51292;SDS011;37377;45.186;9.778;2023-08-20T00:50:44;45.67;;;34.72;;
51292;SDS011;37377;45.186;9.778;2023-08-20T00:53:11;41.38;;;35.38;;
51292;SDS011;37377;45.186;9.778;2023-08-20T00:55:38;45.08;;;36.28;;
51292;SDS011;37377;45.186;9.778;2023-08-20T00:58:05;48.13;;;36.63;;
51292;SDS011;37377;45.186;9.778;2023-08-20T01:00:35;46.65;;;36.33;;
51292;SDS011;37377;45.186;9.778;2023-08-20T01:03:02;42.90;;;35.95;;
51292;SDS011;37377;45.186;9.778;2023-08-20T01:05:32;40.90;;;35.22;;
51292;SDS011;37377;45.186;9.778;2023-08-20T01:10:59;41.55;;;35.45;;
51292;SDS011;37377;45.186;9.778;2023-08-20T01:13:28;42.35;;;35.47;;
51292;SDS011;37377;45.186;9.778;2023-08-20T01:15:56;44.10;;;33.95;;
51292;SDS011;37377;45.186;9.778;2023-08-20T01:18:23;45.47;;;35.08;;
51292;SDS011;37377;45.186;9.778;2023-08-20T01:20:51;43.55;;;35.47;;
51292;SDS011;37377;45.186;9.778;2023-08-20T01:28:41;43.25;;;34.55;;
51292;SDS011;37377;45.186;9.778;2023-08-20T01:31:09;42.72;;;35.03;;
51292;SDS011;37377;45.186;9.778;2023-08-20T01:33:37;42.08;;;34.95;;
51292;SDS011;37377;45.186;9.778;2023-08-20T01:36:06;38.40;;;34.30;;
51292;SDS011;37377;45.186;9.778;2023-08-20T01:38:36;45.20;;;35.90;;
51292;SDS011;37377;45.186;9.778;2023-08-20T01:41:04;43.75;;;35.83;;
51292;SDS011;37377;45.186;9.778;2023-08-20T01:43:32;50.50;;;34.42;;
51292;SDS011;37377;45.186;9.778;2023-08-20T01:45:59;39.80;;;34.33;;
51292;SDS011;37377;45.186;9.778;2023-08-20T01:48:25;50.90;;;33.22;;
51292;SDS011;37377;45.186;9.778;2023-08-20T01:50:52;45.28;;;33.95;;
51292;SDS011;37377;45.186;9.778;2023-08-20T01:53:19;43.20;;;34.35;;
51292;SDS011;37377;45.186;9.778;2023-08-20T01:55:46;39.70;;;33.28;;
51292;SDS011;37377;45.186;9.778;2023-08-20T01:58:13;39.90;;;34.35;;
51292;SDS011;37377;45.186;9.778;2023-08-20T02:00:41;44.20;;;33.92;;
51292;SDS011;37377;45.186;9.778;2023-08-20T02:03:10;39.63;;;33.58;;
51292;SDS011;37377;45.186;9.778;2023-08-20T02:05:38;40.83;;;34.50;;
51292;SDS011;37377;45.186;9.778;2023-08-20T02:08:08;37.15;;;33.20;;
51292;SDS011;37377;45.186;9.778;2023-08-20T02:10:36;40.80;;;33.67;;
51292;SDS011;37377;45.186;9.778;2023-08-20T02:13:04;46.17;;;33.83;;
51292;SDS011;37377;45.186;9.778;2023-08-20T02:15:31;46.13;;;34.40;;
51292;SDS011;37377;45.186;9.778;2023-08-20T02:17:59;44.58;;;34.05;;
51292;SDS011;37377;45.186;9.778;2023-08-20T02:20:28;49.20;;;39.15;;
51292;SDS011;37377;45.186;9.778;2023-08-20T02:23:02;37.08;;;33.28;;
51292;SDS011;37377;45.186;9.778;2023-08-20T02:25:31;42.95;;;34.65;;
51292;SDS011;37377;45.186;9.778;2023-08-20T02:27:59;50.22;;;35.92;;
51292;SDS011;37377;45.186;9.778;2023-08-20T02:30:27;38.60;;;34.38;;
51292;SDS011;37377;45.186;9.778;2023-08-20T02:32:54;44.72;;;36.50;;
51292;SDS011;37377;45.186;9.778;2023-08-20T02:35:21;39.92;;;35.25;;
51292;SDS011;37377;45.186;9.778;2023-08-20T02:37:50;44.60;;;35.35;;
51292;SDS011;37377;45.186;9.778;2023-08-20T02:40:16;37.28;;;33.35;;
51292;SDS011;37377;45.186;9.778;2023-08-20T02:42:43;36.53;;;32.60;;
51292;SDS011;37377;45.186;9.778;2023-08-20T02:45:10;40.38;;;35.30;;
51292;SDS011;37377;45.186;9.778;2023-08-20T02:47:37;42.28;;;34.50;;
51292;SDS011;37377;45.186;9.778;2023-08-20T02:50:04;42.70;;;38.20;;
51292;SDS011;37377;45.186;9.778;2023-08-20T02:52:32;40.47;;;34.88;;
51292;SDS011;37377;45.186;9.778;2023-08-20T02:54:59;47.40;;;35.13;;
51292;SDS011;37377;45.186;9.778;2023-08-20T02:57:25;39.78;;;34.70;;
51292;SDS011;37377;45.186;9.778;2023-08-20T02:59:52;45.70;;;35.38;;
51292;SDS011;37377;45.186;9.778;2023-08-20T03:02:19;40.08;;;35.30;;
51292;SDS011;37377;45.186;9.778;2023-08-20T03:04:46;44.53;;;36.42;;
51292;SDS011;37377;45.186;9.778;2023-08-20T03:07:13;47.42;;;36.25;;
51292;SDS011;37377;45.186;9.778;2023-08-20T03:09:40;42.83;;;34.65;;
51292;SDS011;37377;45.186;9.778;2023-08-20T03:12:07;43.10;;;35.80;;
51292;SDS011;37377;45.186;9.778;2023-08-20T03:14:36;42.28;;;35.65;;
51292;SDS011;37377;45.186;9.778;2023-08-20T03:17:03;40.67;;;36.20;;
51292;SDS011;37377;45.186;9.778;2023-08-20T03:19:32;49.88;;;38.72;;
51292;SDS011;37377;45.186;9.778;2023-08-20T03:21:59;51.15;;;38.78;;
51292;SDS011;37377;45.186;9.778;2023-08-20T03:24:26;46.13;;;37.97;;
51292;SDS011;37377;45.186;9.778;2023-08-20T03:26:53;43.60;;;38.40;;
51292;SDS011;37377;45.186;9.778;2023-08-20T03:29:20;43.20;;;38.33;;
51292;SDS011;37377;45.186;9.778;2023-08-20T03:31:46;47.58;;;38.42;;
51292;SDS011;37377;45.186;9.778;2023-08-20T03:34:17;47.58;;;38.78;;
51292;SDS011;37377;45.186;9.778;2023-08-20T03:36:44;41.97;;;36.20;;
51292;SDS011;37377;45.186;9.778;2023-08-20T03:39:11;42.97;;;36.70;;
51292;SDS011;37377;45.186;9.778;2023-08-20T03:41:37;40.85;;;36.28;;
51292;SDS011;37377;45.186;9.778;2023-08-20T03:44:05;41.65;;;36.72;;
51292;SDS011;37377;45.186;9.778;2023-08-20T03:46:32;47.40;;;37.10;;
51292;SDS011;37377;45.186;9.778;2023-08-20T03:49:01;44.00;;;34.75;;
51292;SDS011;37377;45.186;9.778;2023-08-20T03:51:28;46.22;;;37.22;;
51292;SDS011;37377;45.186;9.778;2023-08-20T03:53:56;49.63;;;36.17;;
51292;SDS011;37377;45.186;9.778;2023-08-20T03:56:22;52.83;;;38.40;;
51292;SDS011;37377;45.186;9.778;2023-08-20T03:58:49;45.78;;;37.05;;
51292;SDS011;37377;45.186;9.778;2023-08-20T04:01:16;43.88;;;38.85;;
51292;SDS011;37377;45.186;9.778;2023-08-20T04:03:47;47.88;;;38.78;;
51292;SDS011;37377;45.186;9.778;2023-08-20T04:06:14;47.38;;;38.67;;
51292;SDS011;37377;45.186;9.778;2023-08-20T04:08:42;45.75;;;39.53;;
51292;SDS011;37377;45.186;9.778;2023-08-20T04:11:10;43.33;;;38.97;;
51292;SDS011;37377;45.186;9.778;2023-08-20T04:13:39;51.88;;;39.10;;
51292;SDS011;37377;45.186;9.778;2023-08-20T04:16:09;41.65;;;37.15;;
51292;SDS011;37377;45.186;9.778;2023-08-20T04:18:36;44.83;;;38.80;;
51292;SDS011;37377;45.186;9.778;2023-08-20T04:21:03;47.33;;;39.88;;
51292;SDS011;37377;45.186;9.778;2023-08-20T04:23:29;45.95;;;38.95;;
51292;SDS011;37377;45.186;9.778;2023-08-20T04:25:56;57.08;;;40.78;;
51292;SDS011;37377;45.186;9.778;2023-08-20T04:28:24;55.60;;;41.35;;
51292;SDS011;37377;45.186;9.778;2023-08-20T04:30:54;50.00;;;41.17;;
51292;SDS011;37377;45.186;9.778;2023-08-20T04:35:32;49.63;;;40.40;;
51292;SDS011;37377;45.186;9.778;2023-08-20T04:41:41;55.28;;;45.20;;
51292;SDS011;37377;45.186;9.778;2023-08-20T04:52:14;74.63;;;43.88;;
51292;SDS011;37377;45.186;9.778;2023-08-20T04:57:26;58.80;;;44.83;;
51292;SDS011;37377;45.186;9.778;2023-08-20T05:02:58;66.82;;;44.40;;
51292;SDS011;37377;45.186;9.778;2023-08-20T05:11:41;63.08;;;44.03;;
51292;SDS011;37377;45.186;9.778;2023-08-20T05:15:47;58.05;;;44.95;;
51292;SDS011;37377;45.186;9.778;2023-08-20T05:18:14;60.45;;;41.90;;
51292;SDS011;37377;45.186;9.778;2023-08-20T05:20:42;49.95;;;39.15;;
51292;SDS011;37377;45.186;9.778;2023-08-20T05:23:09;41.03;;;36.33;;
51292;SDS011;37377;45.186;9.778;2023-08-20T05:25:36;42.10;;;35.55;;
51292;SDS011;37377;45.186;9.778;2023-08-20T05:28:03;50.95;;;32.05;;
51292;SDS011;37377;45.186;9.778;2023-08-20T05:30:33;43.63;;;31.65;;
51292;SDS011;37377;45.186;9.778;2023-08-20T05:33:01;40.95;;;30.65;;
51292;SDS011;37377;45.186;9.778;2023-08-20T05:35:34;36.83;;;32.75;;
51292;SDS011;37377;45.186;9.778;2023-08-20T05:38:01;52.00;;;32.55;;
51292;SDS011;37377;45.186;9.778;2023-08-20T05:40:28;50.28;;;33.85;;
51292;SDS011;37377;45.186;9.778;2023-08-20T05:42:55;62.55;;;35.28;;
51292;SDS011;37377;45.186;9.778;2023-08-20T05:45:22;84.35;;;37.45;;
51292;SDS011;37377;45.186;9.778;2023-08-20T05:47:51;60.42;;;34.83;;
51292;SDS011;37377;45.186;9.778;2023-08-20T05:50:18;53.90;;;36.88;;
51292;SDS011;37377;45.186;9.778;2023-08-20T05:52:45;62.63;;;37.65;;
51292;SDS011;37377;45.186;9.778;2023-08-20T05:55:12;88.00;;;39.35;;
51292;SDS011;37377;45.186;9.778;2023-08-20T05:57:41;58.67;;;37.80;;
51292;SDS011;37377;45.186;9.778;2023-08-20T06:00:10;57.17;;;37.95;;
51292;SDS011;37377;45.186;9.778;2023-08-20T06:02:45;55.60;;;38.45;;
51292;SDS011;37377;45.186;9.778;2023-08-20T06:05:12;57.10;;;37.58;;
51292;SDS011;37377;45.186;9.778;2023-08-20T06:07:39;46.30;;;37.70;;
51292;SDS011;37377;45.186;9.778;2023-08-20T06:10:07;52.60;;;37.65;;
51292;SDS011;37377;45.186;9.778;2023-08-20T06:12:34;49.50;;;35.92;;
51292;SDS011;37377;45.186;9.778;2023-08-20T06:15:01;48.42;;;35.22;;
51292;SDS011;37377;45.186;9.778;2023-08-20T06:17:29;46.10;;;32.25;;
51292;SDS011;37377;45.186;9.778;2023-08-20T06:19:56;49.20;;;31.17;;
51292;SDS011;37377;45.186;9.778;2023-08-20T06:22:23;49.28;;;29.45;;
51292;SDS011;37377;45.186;9.778;2023-08-20T06:24:50;35.10;;;26.80;;
51292;SDS011;37377;45.186;9.778;2023-08-20T06:27:17;34.25;;;25.73;;
51292;SDS011;37377;45.186;9.778;2023-08-20T06:29:44;33.30;;;25.55;;
51292;SDS011;37377;45.186;9.778;2023-08-20T06:32:11;39.50;;;24.77;;
51292;SDS011;37377;45.186;9.778;2023-08-20T06:34:38;30.25;;;25.33;;
51292;SDS011;37377;45.186;9.778;2023-08-20T06:37:05;35.90;;;23.80;;
51292;SDS011;37377;45.186;9.778;2023-08-20T06:39:32;33.47;;;23.85;;
51292;SDS011;37377;45.186;9.778;2023-08-20T06:41:59;29.75;;;23.02;;
51292;SDS011;37377;45.186;9.778;2023-08-20T06:44:27;30.48;;;21.90;;
51292;SDS011;37377;45.186;9.778;2023-08-20T06:46:54;25.90;;;20.13;;
51292;SDS011;37377;45.186;9.778;2023-08-20T06:49:21;25.58;;;20.80;;
51292;SDS011;37377;45.186;9.778;2023-08-20T06:51:48;30.35;;;20.98;;
51292;SDS011;37377;45.186;9.778;2023-08-20T06:54:15;30.15;;;19.33;;
51292;SDS011;37377;45.186;9.778;2023-08-20T06:56:42;22.55;;;19.20;;
51292;SDS011;37377;45.186;9.778;2023-08-20T06:59:10;31.00;;;19.20;;
51292;SDS011;37377;45.186;9.778;2023-08-20T07:01:37;27.75;;;21.30;;
51292;SDS011;37377;45.186;9.778;2023-08-20T07:04:05;31.95;;;22.10;;
51292;SDS011;37377;45.186;9.778;2023-08-20T07:06:32;35.47;;;21.50;;
51292;SDS011;37377;45.186;9.778;2023-08-20T07:08:59;30.13;;;19.73;;
51292;SDS011;37377;45.186;9.778;2023-08-20T07:11:27;29.13;;;19.63;;
51292;SDS011;37377;45.186;9.778;2023-08-20T07:13:54;34.92;;;19.80;;
51292;SDS011;37377;45.186;9.778;2023-08-20T07:16:21;36.55;;;19.30;;
51292;SDS011;37377;45.186;9.778;2023-08-20T07:18:50;28.58;;;19.52;;
51292;SDS011;37377;45.186;9.778;2023-08-20T07:21:17;37.38;;;18.50;;
51292;SDS011;37377;45.186;9.778;2023-08-20T07:23:44;30.88;;;18.80;;
51292;SDS011;37377;45.186;9.778;2023-08-20T07:26:11;31.20;;;18.60;;
51292;SDS011;37377;45.186;9.778;2023-08-20T07:28:42;28.92;;;18.00;;
51292;SDS011;37377;45.186;9.778;2023-08-20T07:31:24;31.65;;;17.45;;
51292;SDS011;37377;45.186;9.778;2023-08-20T07:33:56;36.33;;;20.73;;
51292;SDS011;37377;45.186;9.778;2023-08-20T07:36:29;41.00;;;19.95;;
51292;SDS011;37377;45.186;9.778;2023-08-20T07:38:56;29.58;;;17.02;;
51292;SDS011;37377;45.186;9.778;2023-08-20T07:41:23;25.75;;;17.27;;
51292;SDS011;37377;45.186;9.778;2023-08-20T07:43:50;24.48;;;18.60;;
51292;SDS011;37377;45.186;9.778;2023-08-20T07:46:17;37.58;;;19.40;;
51292;SDS011;37377;45.186;9.778;2023-08-20T07:48:45;45.30;;;18.23;;
51292;SDS011;37377;45.186;9.778;2023-08-20T07:51:13;39.03;;;17.02;;
51292;SDS011;37377;45.186;9.778;2023-08-20T07:53:40;23.35;;;14.32;;
51292;SDS011;37377;45.186;9.778;2023-08-20T07:56:08;29.05;;;15.07;;
51292;SDS011;37377;45.186;9.778;2023-08-20T07:58:36;36.72;;;17.20;;
51292;SDS011;37377;45.186;9.778;2023-08-20T08:01:05;35.70;;;17.25;;
51292;SDS011;37377;45.186;9.778;2023-08-20T08:03:32;24.10;;;15.00;;
51292;SDS011;37377;45.186;9.778;2023-08-20T08:06:00;23.58;;;15.60;;
51292;SDS011;37377;45.186;9.778;2023-08-20T08:08:28;30.67;;;17.05;;
51292;SDS011;37377;45.186;9.778;2023-08-20T08:10:55;28.88;;;17.17;;
51292;SDS011;37377;45.186;9.778;2023-08-20T08:13:22;34.00;;;17.08;;
51292;SDS011;37377;45.186;9.778;2023-08-20T08:15:51;24.02;;;17.70;;
51292;SDS011;37377;45.186;9.778;2023-08-20T08:18:19;30.30;;;17.45;;
51292;SDS011;37377;45.186;9.778;2023-08-20T08:20:47;25.05;;;19.08;;
51292;SDS011;37377;45.186;9.778;2023-08-20T08:23:19;26.02;;;17.65;;
51292;SDS011;37377;45.186;9.778;2023-08-20T08:25:46;29.48;;;17.95;;
51292;SDS011;37377;45.186;9.778;2023-08-20T08:28:19;27.95;;;17.67;;
51292;SDS011;37377;45.186;9.778;2023-08-20T08:30:53;27.02;;;17.27;;
51292;SDS011;37377;45.186;9.778;2023-08-20T08:33:29;23.95;;;16.45;;
51292;SDS011;37377;45.186;9.778;2023-08-20T08:35:59;22.63;;;17.20;;
51292;SDS011;37377;45.186;9.778;2023-08-20T08:38:32;27.90;;;16.80;;
51292;SDS011;37377;45.186;9.778;2023-08-20T08:40:59;24.13;;;15.82;;
51292;SDS011;37377;45.186;9.778;2023-08-20T08:43:30;19.02;;;13.90;;
51292;SDS011;37377;45.186;9.778;2023-08-20T08:46:10;23.70;;;15.52;;
51292;SDS011;37377;45.186;9.778;2023-08-20T08:48:48;24.42;;;16.85;;
51292;SDS011;37377;45.186;9.778;2023-08-20T08:51:24;23.83;;;15.98;;
51292;SDS011;37377;45.186;9.778;2023-08-20T08:53:57;24.80;;;17.07;;
51292;SDS011;37377;45.186;9.778;2023-08-20T08:56:33;22.13;;;16.15;;
51292;SDS011;37377;45.186;9.778;2023-08-20T08:59:03;35.92;;;16.92;;
51292;SDS011;37377;45.186;9.778;2023-08-20T09:01:30;18.00;;;13.23;;
51292;SDS011;37377;45.186;9.778;2023-08-20T09:04:07;22.48;;;13.15;;
51292;SDS011;37377;45.186;9.778;2023-08-20T09:06:52;17.73;;;14.02;;
51292;SDS011;37377;45.186;9.778;2023-08-20T09:09:22;27.80;;;11.85;;
51292;SDS011;37377;45.186;9.778;2023-08-20T09:11:58;27.52;;;11.52;;
51292;SDS011;37377;45.186;9.778;2023-08-20T09:14:32;12.57;;;10.40;;
51292;SDS011;37377;45.186;9.778;2023-08-20T09:17:03;19.90;;;12.55;;
51292;SDS011;37377;45.186;9.778;2023-08-20T09:19:35;16.92;;;10.82;;
51292;SDS011;37377;45.186;9.778;2023-08-20T09:22:06;16.83;;;13.20;;
51292;SDS011;37377;45.186;9.778;2023-08-20T09:27:17;16.63;;;11.80;;
51292;SDS011;37377;45.186;9.778;2023-08-20T09:32:15;17.35;;;10.18;;
51292;SDS011;37377;45.186;9.778;2023-08-20T09:34:44;21.55;;;11.75;;
51292;SDS011;37377;45.186;9.778;2023-08-20T09:37:22;18.27;;;9.55;;
51292;SDS011;37377;45.186;9.778;2023-08-20T09:39:52;18.77;;;8.90;;
51292;SDS011;37377;45.186;9.778;2023-08-20T09:42:23;14.55;;;8.30;;
51292;SDS011;37377;45.186;9.778;2023-08-20T09:44:55;10.40;;;8.32;;
51292;SDS011;37377;45.186;9.778;2023-08-20T09:47:25;19.50;;;8.98;;
51292;SDS011;37377;45.186;9.778;2023-08-20T09:50:01;17.15;;;8.55;;
51292;SDS011;37377;45.186;9.778;2023-08-20T09:52:57;15.32;;;8.13;;
51292;SDS011;37377;45.186;9.778;2023-08-20T09:55:29;18.83;;;8.55;;
51292;SDS011;37377;45.186;9.778;2023-08-20T09:58:03;16.13;;;8.35;;
51292;SDS011;37377;45.186;9.778;2023-08-20T10:00:33;13.68;;;8.40;;
51292;SDS011;37377;45.186;9.778;2023-08-20T10:03:05;20.02;;;8.85;;
51292;SDS011;37377;45.186;9.778;2023-08-20T10:05:48;9.25;;;8.10;;
51292;SDS011;37377;45.186;9.778;2023-08-20T10:08:26;13.98;;;7.38;;
51292;SDS011;37377;45.186;9.778;2023-08-20T10:11:02;15.50;;;8.13;;
51292;SDS011;37377;45.186;9.778;2023-08-20T10:13:29;10.82;;;8.43;;
51292;SDS011;37377;45.186;9.778;2023-08-20T10:16:17;16.80;;;9.18;;
51292;SDS011;37377;45.186;9.778;2023-08-20T10:18:49;26.63;;;9.85;;
51292;SDS011;37377;45.186;9.778;2023-08-20T10:21:16;15.63;;;10.52;;
51292;SDS011;37377;45.186;9.778;2023-08-20T10:23:49;14.50;;;9.52;;
51292;SDS011;37377;45.186;9.778;2023-08-20T10:26:19;12.10;;;9.10;;
51292;SDS011;37377;45.186;9.778;2023-08-20T10:32:05;11.80;;;8.27;;
51292;SDS011;37377;45.186;9.778;2023-08-20T10:34:35;7.75;;;5.95;;
51292;SDS011;37377;45.186;9.778;2023-08-20T10:37:12;12.13;;;6.70;;
51292;SDS011;37377;45.186;9.778;2023-08-20T10:39:55;13.45;;;7.35;;
51292;SDS011;37377;45.186;9.778;2023-08-20T10:42:27;11.02;;;6.63;;
51292;SDS011;37377;45.186;9.778;2023-08-20T10:45:09;15.13;;;6.43;;
51292;SDS011;37377;45.186;9.778;2023-08-20T10:47:46;11.75;;;7.43;;
51292;SDS011;37377;45.186;9.778;2023-08-20T10:50:15;14.55;;;7.38;;
51292;SDS011;37377;45.186;9.778;2023-08-20T10:52:49;12.60;;;7.60;;
51292;SDS011;37377;45.186;9.778;2023-08-20T10:55:22;13.00;;;7.10;;
51292;SDS011;37377;45.186;9.778;2023-08-20T10:57:56;14.00;;;7.50;;
51292;SDS011;37377;45.186;9.778;2023-08-20T11:00:24;15.00;;;7.50;;
51292;SDS011;37377;45.186;9.778;2023-08-20T11:02:51;13.80;;;7.75;;
51292;SDS011;37377;45.186;9.778;2023-08-20T11:05:19;17.42;;;8.55;;
51292;SDS011;37377;45.186;9.778;2023-08-20T11:07:48;15.88;;;7.63;;
51292;SDS011;37377;45.186;9.778;2023-08-20T11:10:15;11.55;;;6.80;;
51292;SDS011;37377;45.186;9.778;2023-08-20T11:12:43;8.57;;;7.70;;
51292;SDS011;37377;45.186;9.778;2023-08-20T11:15:12;10.38;;;6.65;;
51292;SDS011;37377;45.186;9.778;2023-08-20T11:17:46;13.93;;;7.35;;
51292;SDS011;37377;45.186;9.778;2023-08-20T11:20:17;20.00;;;7.57;;
51292;SDS011;37377;45.186;9.778;2023-08-20T11:22:45;11.85;;;8.07;;
51292;SDS011;37377;45.186;9.778;2023-08-20T11:25:12;11.38;;;8.75;;
51292;SDS011;37377;45.186;9.778;2023-08-20T11:27:42;12.80;;;8.57;;
51292;SDS011;37377;45.186;9.778;2023-08-20T11:30:10;20.73;;;8.82;;
51292;SDS011;37377;45.186;9.778;2023-08-20T11:32:41;11.35;;;7.80;;
51292;SDS011;37377;45.186;9.778;2023-08-20T11:35:09;16.52;;;7.53;;
51292;SDS011;37377;45.186;9.778;2023-08-20T11:37:36;9.45;;;7.07;;
51292;SDS011;37377;45.186;9.778;2023-08-20T11:40:07;9.30;;;6.35;;
51292;SDS011;37377;45.186;9.778;2023-08-20T11:42:34;11.85;;;6.70;;
51292;SDS011;37377;45.186;9.778;2023-08-20T11:45:01;13.52;;;6.97;;
51292;SDS011;37377;45.186;9.778;2023-08-20T11:47:28;6.72;;;6.00;;
51292;SDS011;37377;45.186;9.778;2023-08-20T11:50:05;7.53;;;6.80;;
51292;SDS011;37377;45.186;9.778;2023-08-20T11:52:32;18.67;;;6.47;;
51292;SDS011;37377;45.186;9.778;2023-08-20T11:55:00;13.90;;;5.95;;
51292;SDS011;37377;45.186;9.778;2023-08-20T11:57:31;8.60;;;6.38;;
51292;SDS011;37377;45.186;9.778;2023-08-20T12:00:00;6.53;;;5.57;;
51292;SDS011;37377;45.186;9.778;2023-08-20T12:02:41;5.88;;;5.38;;
51292;SDS011;37377;45.186;9.778;2023-08-20T12:05:11;8.75;;;5.70;;
51292;SDS011;37377;45.186;9.778;2023-08-20T12:07:42;6.47;;;5.60;;
51292;SDS011;37377;45.186;9.778;2023-08-20T12:10:27;8.07;;;5.60;;
51292;SDS011;37377;45.186;9.778;2023-08-20T12:12:57;8.50;;;5.30;;
51292;SDS011;37377;45.186;9.778;2023-08-20T12:15:25;8.55;;;5.55;;
51292;SDS011;37377;45.186;9.778;2023-08-20T12:18:04;7.47;;;5.05;;
51292;SDS011;37377;45.186;9.778;2023-08-20T12:20:51;12.45;;;5.50;;
51292;SDS011;37377;45.186;9.778;2023-08-20T12:23:24;6.35;;;4.75;;
51292;SDS011;37377;45.186;9.778;2023-08-20T12:25:54;11.75;;;5.03;;
51292;SDS011;37377;45.186;9.778;2023-08-20T12:28:21;7.38;;;5.00;;
51292;SDS011;37377;45.186;9.778;2023-08-20T12:30:49;13.88;;;5.53;;
51292;SDS011;37377;45.186;9.778;2023-08-20T12:33:19;10.88;;;6.50;;
51292;SDS011;37377;45.186;9.778;2023-08-20T12:35:53;8.70;;;5.07;;
51292;SDS011;37377;45.186;9.778;2023-08-20T12:38:28;9.98;;;5.43;;
51292;SDS011;37377;45.186;9.778;2023-08-20T12:43:48;7.47;;;4.72;;
51292;SDS011;37377;45.186;9.778;2023-08-20T12:46:22;8.18;;;4.43;;
51292;SDS011;37377;45.186;9.778;2023-08-20T12:48:52;8.95;;;4.53;;
51292;SDS011;37377;45.186;9.778;2023-08-20T12:51:23;9.38;;;4.82;;
51292;SDS011;37377;45.186;9.778;2023-08-20T12:53:51;9.10;;;4.50;;
51292;SDS011;37377;45.186;9.778;2023-08-20T12:56:26;6.15;;;4.65;;
51292;SDS011;37377;45.186;9.778;2023-08-20T12:58:59;4.72;;;4.25;;
51292;SDS011;37377;45.186;9.778;2023-08-20T13:01:27;8.35;;;4.45;;
51292;SDS011;37377;45.186;9.778;2023-08-20T13:03:54;12.63;;;4.47;;
51292;SDS011;37377;45.186;9.778;2023-08-20T13:06:27;9.55;;;4.47;;
51292;SDS011;37377;45.186;9.778;2023-08-20T13:09:03;9.88;;;4.35;;
51292;SDS011;37377;45.186;9.778;2023-08-20T13:11:36;9.95;;;4.50;;
51292;SDS011;37377;45.186;9.778;2023-08-20T13:14:06;6.07;;;4.00;;
51292;SDS011;37377;45.186;9.778;2023-08-20T13:16:36;11.43;;;4.43;;
51292;SDS011;37377;45.186;9.778;2023-08-20T13:19:05;6.55;;;3.95;;
51292;SDS011;37377;45.186;9.778;2023-08-20T13:21:33;5.47;;;4.32;;
51292;SDS011;37377;45.186;9.778;2023-08-20T13:24:06;8.98;;;4.25;;
51292;SDS011;37377;45.186;9.778;2023-08-20T13:26:39;4.88;;;4.32;;
51292;SDS011;37377;45.186;9.778;2023-08-20T13:29:11;7.20;;;3.97;;
51292;SDS011;37377;45.186;9.778;2023-08-20T13:31:39;7.97;;;5.47;;
51292;SDS011;37377;45.186;9.778;2023-08-20T13:34:16;5.20;;;4.03;;
51292;SDS011;37377;45.186;9.778;2023-08-20T13:36:47;6.28;;;4.18;;
51292;SDS011;37377;45.186;9.778;2023-08-20T13:39:17;7.93;;;4.32;;
51292;SDS011;37377;45.186;9.778;2023-08-20T13:41:53;9.93;;;4.32;;
51292;SDS011;37377;45.186;9.778;2023-08-20T13:44:23;9.60;;;6.03;;
51292;SDS011;37377;45.186;9.778;2023-08-20T13:46:54;7.35;;;4.78;;
51292;SDS011;37377;45.186;9.778;2023-08-20T13:49:29;7.63;;;5.18;;
51292;SDS011;37377;45.186;9.778;2023-08-20T13:52:04;15.07;;;8.90;;
51292;SDS011;37377;45.186;9.778;2023-08-20T13:54:34;10.23;;;5.78;;
51292;SDS011;37377;45.186;9.778;2023-08-20T13:57:04;24.95;;;4.35;;
51292;SDS011;37377;45.186;9.778;2023-08-20T13:59:32;10.90;;;5.13;;
51292;SDS011;37377;45.186;9.778;2023-08-20T14:02:05;20.25;;;6.78;;
51292;SDS011;37377;45.186;9.778;2023-08-20T14:04:37;12.15;;;4.75;;
51292;SDS011;37377;45.186;9.778;2023-08-20T14:07:06;31.33;;;5.10;;
51292;SDS011;37377;45.186;9.778;2023-08-20T14:09:34;16.88;;;5.47;;
51292;SDS011;37377;45.186;9.778;2023-08-20T14:12:02;5.28;;;4.65;;
51292;SDS011;37377;45.186;9.778;2023-08-20T14:14:30;10.20;;;5.75;;
51292;SDS011;37377;45.186;9.778;2023-08-20T14:16:57;8.02;;;5.78;;
51292;SDS011;37377;45.186;9.778;2023-08-20T14:19:24;7.70;;;5.30;;
51292;SDS011;37377;45.186;9.778;2023-08-20T14:21:52;10.50;;;4.60;;
51292;SDS011;37377;45.186;9.778;2023-08-20T14:24:19;8.93;;;4.93;;
51292;SDS011;37377;45.186;9.778;2023-08-20T14:26:46;10.35;;;4.90;;
51292;SDS011;37377;45.186;9.778;2023-08-20T14:29:13;8.70;;;5.10;;
51292;SDS011;37377;45.186;9.778;2023-08-20T14:31:41;14.68;;;5.38;;
51292;SDS011;37377;45.186;9.778;2023-08-20T14:34:08;16.88;;;6.65;;
51292;SDS011;37377;45.186;9.778;2023-08-20T14:36:36;7.35;;;5.40;;
51292;SDS011;37377;45.186;9.778;2023-08-20T14:39:04;27.13;;;13.73;;
51292;SDS011;37377;45.186;9.778;2023-08-20T14:41:32;9.70;;;7.20;;
51292;SDS011;37377;45.186;9.778;2023-08-20T14:43:59;5.90;;;5.28;;
51292;SDS011;37377;45.186;9.778;2023-08-20T14:46:26;8.70;;;5.97;;
51292;SDS011;37377;45.186;9.778;2023-08-20T14:48:53;12.32;;;5.22;;
51292;SDS011;37377;45.186;9.778;2023-08-20T14:51:22;11.63;;;6.63;;
51292;SDS011;37377;45.186;9.778;2023-08-20T14:53:49;9.85;;;6.00;;
51292;SDS011;37377;45.186;9.778;2023-08-20T14:56:16;6.63;;;5.65;;
51292;SDS011;37377;45.186;9.778;2023-08-20T14:58:43;10.75;;;5.45;;
51292;SDS011;37377;45.186;9.778;2023-08-20T15:01:10;10.40;;;5.60;;
51292;SDS011;37377;45.186;9.778;2023-08-20T15:03:37;9.88;;;5.13;;
51292;SDS011;37377;45.186;9.778;2023-08-20T15:06:04;6.60;;;5.80;;
51292;SDS011;37377;45.186;9.778;2023-08-20T15:08:32;10.63;;;6.30;;
51292;SDS011;37377;45.186;9.778;2023-08-20T15:10:59;15.98;;;6.35;;
51292;SDS011;37377;45.186;9.778;2023-08-20T15:13:32;22.23;;;6.05;;
51292;SDS011;37377;45.186;9.778;2023-08-20T15:15:59;13.75;;;8.77;;
51292;SDS011;37377;45.186;9.778;2023-08-20T15:18:26;9.45;;;5.82;;
51292;SDS011;37377;45.186;9.778;2023-08-20T15:21:00;19.95;;;6.60;;
51292;SDS011;37377;45.186;9.778;2023-08-20T15:23:29;13.32;;;8.35;;
51292;SDS011;37377;45.186;9.778;2023-08-20T15:25:56;11.00;;;5.72;;
51292;SDS011;37377;45.186;9.778;2023-08-20T15:28:24;10.00;;;8.55;;